Time;durP1;ratioP1;P1;durP2;ratioP2;P2;SDS_P1;SDS_P2;PMS_P1;PMS_P2;Temp;Humidity;BMP_temperature;BMP_pressure;BME280_temperature;BME280_humidity;BME280_pressure;Samples;Min_cycle;Max_cycle;Signal;HPM_P1;HPM_P2
2022/01/24 00:01:04;;;;;;;;;;;-3.00;98.20;;;;;;4971576;28;19937;-94
2022/01/24 00:04:07;;;;;;;;;;;;;;;;;;;;;
2022/01/24 00:06:36;;;;;;;;;;;-3.10;98.50;;;;;;4989029;28;19928;-93
2022/01/24 00:09:15;;;;;;;;;;;-3.00;98.60;;;;;;4976157;28;19910;-94
2022/01/24 00:29:30;;;;;;;;;;;;;;;;;;;;;
2022/01/24 00:32:13;;;;;;;;;;;-2.90;98.40;;;;;;4948437;29;19978;-92
2022/01/24 00:34:48;;;;;;;;;;;-2.80;98.30;;;;;;4951134;28;19910;-93
2022/01/24 00:40:10;;;;;;;;;;;-2.80;98.30;;;;;;4977370;28;19914;-94
2022/01/24 11:44:58;;;;;;;;;;;-1.80;95.20;;;;;;4910562;29;19934;-94
2022/01/24 11:47:28;;;;;;;;;;;-1.90;95.00;;;;;;4888005;29;20025;-92
2022/01/24 11:50:36;;;;;;;;;;;;;;;;;;;;;
2022/01/24 11:59:53;;;;;;;;;;;-1.90;95.30;;;;;;4998589;28;19921;-92
2022/01/24 12:02:46;;;;;;;;;;;-1.90;96.00;;;;;;4982342;28;19922;-92
2022/01/24 12:11:59;;;;;;;;;;;;;;;;;;;;;
2022/01/24 14:07:41;;;;;;;;;;;-2.10;96.40;;;;;;5018382;28;19972;-92
2022/01/24 14:10:16;;;;;;;;;;;-2.10;96.30;;;;;;5027552;28;19913;-93
2022/01/24 14:12:55;;;;;;;;;;;-2.20;96.40;;;;;;5026798;28;19909;-92
2022/01/24 14:15:29;;;;;;;;;;;-2.10;96.50;;;;;;5009696;28;20361;-93
2022/01/24 14:21:41;;;;;;;;;;;-2.10;96.70;;;;;;4987639;28;20400;-92
2022/01/24 14:24:19;;;;;;;;;;;;;;;;;;;;;
2022/01/24 14:26:49;;;;;;;;;;;-2.10;97.10;;;;;;4980036;28;19969;-91
2022/01/24 14:29:19;;;;;;;;;;;-2.10;97.00;;;;;;4962390;28;19910;-92
2022/01/24 14:31:52;;;;;;;;;;;-2.10;97.10;;;;;;4963600;28;20014;-92
2022/01/24 14:34:20;;;;;;;;;;;-2.10;97.10;;;;;;4931390;29;19922;-93
2022/01/24 14:39:54;;;;;;;;;;;-2.10;97.60;;;;;;4946373;29;19934;-91
2022/01/24 14:42:44;;;;;;;;;;;-2.10;97.50;;;;;;4944922;29;19919;-91
2022/01/24 14:45:21;;;;;;;;;;;-2.10;97.80;;;;;;4943727;29;19917;-91
2022/01/24 14:47:54;;;;;;;;;;;-2.10;97.70;;;;;;4930015;29;19911;-91
2022/01/24 14:50:30;;;;;;;;;;;-2.10;98.10;;;;;;4931412;29;19923;-91
2022/01/24 14:52:59;;;;;;;;;;;-2.10;98.10;;;;;;4913568;29;19926;-90
2022/01/24 14:55:36;;;;;;;;;;;-2.20;98.20;;;;;;4925004;28;19938;-92
2022/01/24 14:58:10;;;;;;;;;;;-2.20;98.50;;;;;;4954779;29;20374;-92
2022/01/24 15:00:38;;;;;;;;;;;-2.20;97.80;;;;;;4969782;28;20194;-91
2022/01/24 15:03:13;;;;;;;;;;;-2.20;97.70;;;;;;4962705;28;19934;-92
2022/01/24 15:06:04;;;;;;;;;;;-2.20;97.70;;;;;;4979571;28;19944;-92
2022/01/24 15:08:48;;;;;;;;;;;;;;;;;;;;;
2022/01/24 15:11:16;;;;;;;;;;;-2.20;97.80;;;;;;5006681;28;20037;-92
2022/01/24 15:13:55;;;;;;;;;;;-2.30;97.80;;;;;;4999297;28;19910;-92
2022/01/24 15:16:38;;;;;;;;;;;-2.30;98.00;;;;;;5003367;28;20284;-90
2022/01/24 15:27:45;;;;;;;;;;;-2.30;97.80;;;;;;5003021;28;19925;-92
2022/01/24 15:30:16;;;;;;;;;;;-2.30;97.70;;;;;;5003815;28;19914;-93
2022/01/24 15:33:02;;;;;;;;;;;-2.40;97.60;;;;;;5010570;28;19913;-92
2022/01/24 15:35:31;;;;;;;;;;;-2.40;97.40;;;;;;5008612;28;19909;-92
2022/01/24 15:38:08;;;;;;;;;;;-2.40;97.30;;;;;;5024322;28;19921;-92
2022/01/24 15:40:39;;;;;;;;;;;-2.40;97.40;;;;;;5005668;28;19909;-92
2022/01/24 15:43:51;;;;;;;;;;;-2.50;97.40;;;;;;5022239;28;19929;-92
2022/01/24 15:50:38;;;;;;;;;;;-2.50;97.60;;;;;;5025799;28;19910;-92
2022/01/24 15:52:53;;;;;;;;;;;-2.50;97.50;;;;;;5010882;28;19936;-92
2022/01/24 15:55:24;;;;;;;;;;;-2.50;97.60;;;;;;5003723;28;20009;-92
2022/01/24 15:57:53;;;;;;;;;;;-2.50;97.20;;;;;;5020372;28;19909;-91
2022/01/24 16:00:23;;;;;;;;;;;-2.50;97.20;;;;;;5005551;28;19945;-91
2022/01/24 16:02:59;;;;;;;;;;;-2.50;97.00;;;;;;5003436;28;19918;-93
2022/01/24 16:05:40;;;;;;;;;;;;;;;;;;;;;
2022/01/24 16:08:15;;;;;;;;;;;-2.50;97.40;;;;;;5018585;28;20016;-91
2022/01/24 16:10:51;;;;;;;;;;;-2.50;97.30;;;;;;5004689;28;19977;-93
2022/01/24 16:19:29;;;;;;;;;;;-2.50;97.60;;;;;;4920849;29;19918;-91
2022/01/24 16:22:17;;;;;;;;;;;-2.50;97.60;;;;;;5020581;28;19918;-92
2022/01/24 16:27:19;;;;;;;;;;;-2.50;97.90;;;;;;5029766;28;19914;-92
2022/01/24 16:29:50;;;;;;;;;;;-2.50;97.90;;;;;;5007160;28;19921;-92
2022/01/24 16:32:24;;;;;;;;;;;-2.50;97.70;;;;;;5018706;28;19909;-92
2022/01/24 16:34:53;;;;;;;;;;;-2.40;97.70;;;;;;5007377;28;19910;-91
2022/01/24 16:37:36;;;;;;;;;;;-2.40;98.00;;;;;;4985204;28;19917;-92
2022/01/24 16:49:30;;;;;;;;;;;-2.40;98.00;;;;;;4946469;29;19994;-93
2022/01/24 16:52:16;;;;;;;;;;;-2.40;98.00;;;;;;4943072;29;19925;-91
2022/01/24 16:57:54;;;;;;;;;;;-2.50;98.20;;;;;;4940402;29;20002;-93
2022/01/24 17:03:44;;;;;;;;;;;-2.50;98.30;;;;;;4938804;29;19925;-92
2022/01/24 17:09:23;;;;;;;;;;;-2.60;98.70;;;;;;4890425;29;20375;-92
2022/01/24 17:24:30;;;;;;;;;;;-2.60;99.00;;;;;;4876668;29;19935;-91
2022/01/24 17:26:55;;;;;;;;;;;-2.60;99.20;;;;;;4873904;29;19920;-92
2022/01/24 17:29:28;;;;;;;;;;;-2.70;99.70;;;;;;4856079;29;19964;-92
2022/01/24 17:31:54;;;;;;;;;;;-2.70;99.90;;;;;;4875622;29;19922;-92
2022/01/24 17:34:19;;;;;;;;;;;-2.70;99.90;;;;;;4888843;29;19912;-92
2022/01/24 17:36:45;;;;;;;;;;;-2.70;99.90;;;;;;4937829;28;20269;-91
2022/01/24 17:39:11;;;;;;;;;;;-2.70;99.90;;;;;;4952567;28;19938;-91
2022/01/24 17:44:42;;;;;;;;;;;-2.80;99.90;;;;;;4982194;28;20330;-91
2022/01/24 17:47:10;;;;;;;;;;;-2.90;99.90;;;;;;4967706;28;19910;-92
2022/01/24 17:49:37;;;;;;;;;;;-2.90;99.90;;;;;;4986254;28;19917;-91
2022/01/24 17:52:07;;;;;;;;;;;-2.90;99.90;;;;;;4981258;28;19910;-92
2022/01/24 17:54:34;;;;;;;;;;;-2.90;99.90;;;;;;4962178;28;19919;-91
2022/01/24 17:57:00;;;;;;;;;;;-3.00;99.90;;;;;;4983820;28;19963;-89
2022/01/24 17:59:26;;;;;;;;;;;-3.00;99.90;;;;;;5000350;28;19917;-89
2022/01/24 18:01:51;;;;;;;;;;;-3.00;99.90;;;;;;4981647;28;20349;-89
2022/01/24 18:04:22;;;;;;;;;;;-3.00;99.90;;;;;;4982018;28;19909;-90
2022/01/24 18:06:50;;;;;;;;;;;-3.00;99.90;;;;;;4981397;28;19917;-89
2022/01/24 18:09:15;;;;;;;;;;;-3.00;99.90;;;;;;4991205;28;19928;-90
2022/01/24 18:11:42;;;;;;;;;;;-3.00;99.90;;;;;;5000756;28;20000;-89
2022/01/24 18:14:07;;;;;;;;;;;-3.00;99.90;;;;;;5018011;28;19913;-90
2022/01/24 18:16:33;;;;;;;;;;;-3.00;99.90;;;;;;5000237;28;19981;-90
2022/01/24 18:18:58;;;;;;;;;;;-3.00;99.90;;;;;;5000763;28;19960;-90
2022/01/24 18:21:24;;;;;;;;;;;-3.10;99.90;;;;;;5000444;28;20328;-90
2022/01/24 18:23:50;;;;;;;;;;;-3.10;99.90;;;;;;5004948;28;19917;-91
2022/01/24 18:26:16;;;;;;;;;;;-3.10;99.90;;;;;;5021744;28;19922;-91
2022/01/24 18:28:41;;;;;;;;;;;-3.10;99.90;;;;;;5002913;28;20476;-90
2022/01/24 18:31:08;;;;;;;;;;;-3.20;99.90;;;;;;5017272;28;19952;-90
2022/01/24 18:33:34;;;;;;;;;;;-3.20;99.90;;;;;;5000026;28;19952;-90
2022/01/24 18:35:59;;;;;;;;;;;-3.20;99.90;;;;;;5000000;28;19933;-90
2022/01/24 18:38:25;;;;;;;;;;;-3.20;99.90;;;;;;4999764;28;19917;-90
2022/01/24 18:40:52;;;;;;;;;;;-3.20;99.90;;;;;;5000044;28;19910;-90
2022/01/24 18:43:20;;;;;;;;;;;-3.30;99.90;;;;;;5017059;28;19922;-90
2022/01/24 18:45:46;;;;;;;;;;;-3.20;99.90;;;;;;4999847;28;19996;-91
2022/01/24 18:48:12;;;;;;;;;;;-3.30;99.90;;;;;;5000128;28;20388;-90
2022/01/24 18:50:38;;;;;;;;;;;-3.20;99.90;;;;;;4999612;28;19972;-88
2022/01/24 18:53:05;;;;;;;;;;;-3.30;99.90;;;;;;4999427;28;20245;-90
2022/01/24 18:55:30;;;;;;;;;;;-3.30;99.90;;;;;;4999895;28;20333;-89
2022/01/24 18:57:56;;;;;;;;;;;-3.30;99.90;;;;;;5000283;28;19914;-89
2022/01/24 19:00:23;;;;;;;;;;;-3.30;99.90;;;;;;4999815;28;20357;-88
2022/01/24 19:02:48;;;;;;;;;;;-3.30;99.90;;;;;;5016841;28;20319;-89
2022/01/24 19:05:14;;;;;;;;;;;-3.30;99.90;;;;;;5016505;28;20000;-89
2022/01/24 19:07:39;;;;;;;;;;;-3.30;99.90;;;;;;4999504;28;19909;-89
2022/01/24 19:10:05;;;;;;;;;;;-3.20;99.90;;;;;;4998958;28;20170;-89
2022/01/24 19:12:32;;;;;;;;;;;-3.20;99.90;;;;;;4998685;28;19910;-89
2022/01/24 19:15:01;;;;;;;;;;;-3.20;99.90;;;;;;5000974;28;19909;-88
2022/01/24 19:17:29;;;;;;;;;;;-3.20;99.70;;;;;;4999312;28;20311;-89
2022/01/24 19:23:08;;;;;;;;;;;-3.30;99.80;;;;;;4998887;28;19910;-90
2022/01/24 19:25:31;;;;;;;;;;;-3.30;99.90;;;;;;5016592;28;19963;-90
2022/01/24 19:27:56;;;;;;;;;;;-3.30;99.90;;;;;;4998939;28;19910;-90
2022/01/24 19:30:22;;;;;;;;;;;-3.30;99.90;;;;;;4998900;28;19960;-90
2022/01/24 19:32:48;;;;;;;;;;;-3.30;99.90;;;;;;4998904;28;19996;-90
2022/01/24 19:35:16;;;;;;;;;;;-3.30;99.90;;;;;;4998754;28;20017;-90
2022/01/24 19:37:42;;;;;;;;;;;-3.30;99.90;;;;;;4999372;28;20356;-90
2022/01/24 19:40:08;;;;;;;;;;;-3.30;99.90;;;;;;4999342;28;19909;-90
2022/01/24 19:42:34;;;;;;;;;;;-3.30;99.90;;;;;;4999460;28;20325;-90
2022/01/24 19:45:00;;;;;;;;;;;-3.30;99.90;;;;;;4998565;28;19910;-90
2022/01/24 19:47:26;;;;;;;;;;;-3.30;99.90;;;;;;4998735;28;20304;-90
2022/01/24 19:49:51;;;;;;;;;;;-3.30;99.90;;;;;;4998659;28;20356;-90
2022/01/24 19:52:17;;;;;;;;;;;-3.20;99.90;;;;;;4998447;28;19910;-90
2022/01/24 19:54:52;;;;;;;;;;;-3.20;99.90;;;;;;4998310;28;19910;-90
2022/01/24 19:57:26;;;;;;;;;;;-3.20;99.90;;;;;;4999148;28;19910;-90
2022/01/24 19:59:52;;;;;;;;;;;-3.20;99.90;;;;;;4998857;28;19910;-90
2022/01/24 20:02:18;;;;;;;;;;;-3.20;99.90;;;;;;5015802;28;19983;-90
2022/01/24 20:04:44;;;;;;;;;;;-3.20;99.90;;;;;;4998932;28;19947;-90
2022/01/24 20:07:09;;;;;;;;;;;-3.20;99.70;;;;;;4998232;28;19909;-90
2022/01/24 20:09:35;;;;;;;;;;;-3.20;99.90;;;;;;4998211;28;19925;-90
2022/01/24 20:12:01;;;;;;;;;;;-3.30;99.80;;;;;;4998337;28;19964;-90
2022/01/24 20:14:27;;;;;;;;;;;-3.20;99.80;;;;;;4998714;28;20000;-91
2022/01/24 20:16:54;;;;;;;;;;;-3.20;99.80;;;;;;4999020;28;19960;-89
2022/01/24 20:19:20;;;;;;;;;;;-3.20;99.90;;;;;;4998670;28;19944;-90
2022/01/24 20:21:45;;;;;;;;;;;-3.20;99.30;;;;;;5014963;28;19910;-90
2022/01/24 20:24:11;;;;;;;;;;;-3.20;99.30;;;;;;4998006;28;20250;-90
2022/01/24 20:26:37;;;;;;;;;;;-3.30;99.30;;;;;;5015161;28;19917;-89
2022/01/24 20:29:03;;;;;;;;;;;-3.30;99.60;;;;;;4998058;28;19909;-89
2022/01/24 20:31:29;;;;;;;;;;;-3.20;99.60;;;;;;4997860;28;20000;-89
2022/01/24 20:33:55;;;;;;;;;;;-3.20;99.00;;;;;;4997933;28;20276;-90
2022/01/24 20:36:21;;;;;;;;;;;-3.20;98.50;;;;;;4997871;28;19996;-89
2022/01/24 20:38:47;;;;;;;;;;;-3.30;98.70;;;;;;4998710;28;19910;-90
2022/01/24 20:41:12;;;;;;;;;;;-3.20;98.70;;;;;;4997694;28;20283;-89
2022/01/24 20:43:38;;;;;;;;;;;-3.20;98.50;;;;;;4997567;28;19917;-90
2022/01/24 20:46:03;;;;;;;;;;;-3.20;98.60;;;;;;4997793;28;19910;-90
2022/01/24 20:48:29;;;;;;;;;;;-3.20;97.90;;;;;;4997888;28;19964;-90
2022/01/24 20:50:55;;;;;;;;;;;-3.20;98.20;;;;;;4998340;28;19979;-90
2022/01/24 20:53:21;;;;;;;;;;;-3.20;97.70;;;;;;4997634;28;19921;-90
2022/01/24 20:55:47;;;;;;;;;;;-3.20;97.80;;;;;;4997566;28;19910;-89
2022/01/24 20:58:14;;;;;;;;;;;-3.20;97.30;;;;;;4997648;28;20006;-89
2022/01/24 21:00:40;;;;;;;;;;;-3.20;98.00;;;;;;4997992;28;19976;-89
2022/01/24 21:03:07;;;;;;;;;;;-3.20;97.60;;;;;;4997590;28;19922;-90
2022/01/24 21:05:33;;;;;;;;;;;-3.10;98.30;;;;;;4998380;28;20043;-90
2022/01/24 21:07:59;;;;;;;;;;;-3.10;97.20;;;;;;4997393;28;20257;-89
2022/01/24 21:10:25;;;;;;;;;;;-3.10;97.20;;;;;;4997579;28;19960;-90
2022/01/24 21:13:06;;;;;;;;;;;-3.10;97.50;;;;;;4997986;28;20329;-89
2022/01/24 21:15:32;;;;;;;;;;;-3.10;97.60;;;;;;4998105;28;19910;-89
2022/01/24 21:17:57;;;;;;;;;;;-3.20;97.00;;;;;;4997834;28;19992;-90
2022/01/24 21:20:23;;;;;;;;;;;-3.10;97.10;;;;;;4997587;28;19909;-89
2022/01/24 21:22:49;;;;;;;;;;;-3.10;97.30;;;;;;4997229;28;20353;-89
2022/01/24 21:25:14;;;;;;;;;;;-3.10;97.20;;;;;;4997496;28;19909;-89
2022/01/24 21:27:40;;;;;;;;;;;-3.20;97.10;;;;;;5014713;28;19976;-89
2022/01/24 21:30:09;;;;;;;;;;;-3.20;97.80;;;;;;4997682;28;19920;-90
2022/01/24 21:32:35;;;;;;;;;;;-3.20;97.20;;;;;;4999367;28;19909;-89
2022/01/24 21:35:19;;;;;;;;;;;-3.20;96.90;;;;;;5001144;28;19915;-90
2022/01/24 21:37:45;;;;;;;;;;;-3.20;97.30;;;;;;5001106;28;19916;-89
2022/01/24 21:40:16;;;;;;;;;;;-3.20;97.70;;;;;;5001078;28;19910;-89
2022/01/24 21:42:43;;;;;;;;;;;-3.20;97.50;;;;;;5018731;28;19917;-89
2022/01/24 21:45:09;;;;;;;;;;;-3.20;97.90;;;;;;5000785;28;19910;-89
2022/01/24 21:47:34;;;;;;;;;;;-3.30;97.70;;;;;;5000734;28;20004;-89
2022/01/24 21:50:01;;;;;;;;;;;-3.30;97.20;;;;;;5001322;28;19909;-90
2022/01/24 21:52:27;;;;;;;;;;;-3.30;97.70;;;;;;5000687;28;19968;-89
2022/01/24 21:54:53;;;;;;;;;;;-3.40;97.90;;;;;;5000645;28;20361;-89
2022/01/24 21:57:18;;;;;;;;;;;-3.40;97.50;;;;;;5000981;28;19909;-89
2022/01/24 21:59:44;;;;;;;;;;;-3.40;97.20;;;;;;5000431;28;19910;-89
2022/01/24 22:02:09;;;;;;;;;;;-3.40;97.20;;;;;;5001145;28;20404;-89
2022/01/24 22:04:35;;;;;;;;;;;-3.40;97.80;;;;;;5000411;28;19956;-89
2022/01/24 22:07:04;;;;;;;;;;;-3.40;97.40;;;;;;5000504;28;19984;-89
2022/01/24 22:09:30;;;;;;;;;;;-3.50;97.40;;;;;;4999703;28;19921;-89
2022/01/24 22:11:56;;;;;;;;;;;-3.50;97.90;;;;;;5000138;28;20024;-88
2022/01/24 22:14:21;;;;;;;;;;;-3.50;97.80;;;;;;5000444;28;19909;-89
2022/01/24 22:16:47;;;;;;;;;;;-3.50;97.90;;;;;;5000818;28;20246;-89
2022/01/24 22:19:12;;;;;;;;;;;-3.50;97.60;;;;;;5000119;28;19910;-89
2022/01/24 22:21:38;;;;;;;;;;;-3.40;98.20;;;;;;5001096;28;19941;-89
2022/01/24 22:24:04;;;;;;;;;;;-3.40;97.60;;;;;;5000589;28;19917;-89
2022/01/24 22:26:31;;;;;;;;;;;-3.40;97.10;;;;;;5000171;28;20357;-90
2022/01/24 22:28:58;;;;;;;;;;;-3.40;97.20;;;;;;4999974;28;19913;-89
2022/01/24 22:31:25;;;;;;;;;;;-3.50;97.00;;;;;;5000037;28;19909;-89
2022/01/24 22:33:52;;;;;;;;;;;-3.50;97.20;;;;;;5017628;28;19914;-89
2022/01/24 22:36:19;;;;;;;;;;;-3.50;96.90;;;;;;5025173;28;19956;-89
2022/01/24 22:38:45;;;;;;;;;;;-3.50;97.20;;;;;;5005880;28;19909;-90
2022/01/24 22:41:14;;;;;;;;;;;-3.50;97.30;;;;;;5002549;28;20004;-89
2022/01/24 22:43:41;;;;;;;;;;;-3.50;97.40;;;;;;4999550;28;19918;-89
2022/01/24 22:46:08;;;;;;;;;;;-3.50;97.00;;;;;;5000117;28;19964;-89
2022/01/24 22:48:35;;;;;;;;;;;-3.50;96.90;;;;;;5000154;28;19949;-89
2022/01/24 22:51:00;;;;;;;;;;;-3.50;96.90;;;;;;5000165;28;19949;-89
2022/01/24 22:53:26;;;;;;;;;;;-3.50;96.50;;;;;;4999696;28;19920;-89
2022/01/24 22:55:51;;;;;;;;;;;-3.50;96.80;;;;;;5017433;28;19910;-89
2022/01/24 22:58:18;;;;;;;;;;;-3.50;96.20;;;;;;5000450;28;19914;-89
2022/01/24 23:00:49;;;;;;;;;;;-3.60;96.40;;;;;;5016968;28;19917;-89
2022/01/24 23:03:14;;;;;;;;;;;-3.50;96.50;;;;;;4999917;28;19964;-89
2022/01/24 23:05:40;;;;;;;;;;;-3.50;96.20;;;;;;4999409;28;20344;-90
2022/01/24 23:08:06;;;;;;;;;;;-3.50;96.50;;;;;;4999125;28;20008;-90
2022/01/24 23:10:35;;;;;;;;;;;-3.50;96.30;;;;;;5016901;28;20333;-89
2022/01/24 23:13:04;;;;;;;;;;;-3.50;95.90;;;;;;4999817;28;19909;-89
2022/01/24 23:20:39;;;;;;;;;;;-3.60;95.90;;;;;;5016653;28;19910;-89
2022/01/24 23:23:05;;;;;;;;;;;-3.60;95.30;;;;;;4999054;28;19918;-89
2022/01/24 23:25:31;;;;;;;;;;;-3.70;96.00;;;;;;4999184;28;19917;-90
2022/01/24 23:28:07;;;;;;;;;;;-3.70;95.80;;;;;;4999574;28;20360;-90
2022/01/24 23:30:45;;;;;;;;;;;-3.60;96.40;;;;;;4999116;28;19909;-89
2022/01/24 23:33:23;;;;;;;;;;;-3.60;96.30;;;;;;5016953;28;19992;-90
2022/01/24 23:41:18;;;;;;;;;;;-3.70;95.30;;;;;;5016435;28;19967;-90
2022/01/24 23:43:49;;;;;;;;;;;-3.70;95.40;;;;;;4998329;28;19925;-90
2022/01/24 23:46:17;;;;;;;;;;;-3.70;95.90;;;;;;4998621;28;20015;-90
2022/01/24 23:48:43;;;;;;;;;;;-3.70;96.20;;;;;;4999379;28;19952;-90
2022/01/24 23:51:08;;;;;;;;;;;-3.70;96.10;;;;;;4998372;28;20377;-90
2022/01/24 23:53:35;;;;;;;;;;;-3.80;95.90;;;;;;5016058;28;19913;-90
2022/01/24 23:56:01;;;;;;;;;;;-3.80;95.80;;;;;;4998781;28;19916;-90
